Time,TemperatureF,DewpointF,PressureIn,WindDirection,WindDirectionDegrees,WindSpeedMPH,WindSpeedGustMPH,Humidity,HourlyPrecipIn,Conditions,Clouds,dailyrainin,SolarRadiationWatts/m^2,SoftwareType,DateUTC
2013-04-21 00:02:00,52.9,46.9,30.19,NNE,32,0.0,0.0,80,0.00,,,0.00,0.0,meteohub,2013-04-21 05:02:00,
2013-04-21 00:07:00,53.1,46.8,30.18,NNE,32,0.0,1.0,79,0.00,,,0.00,0.0,meteohub,2013-04-21 05:07:00,
2013-04-21 00:12:00,52.9,46.9,30.18,NNE,32,0.0,1.0,80,0.00,,,0.00,0.0,meteohub,2013-04-21 05:12:00,
2013-04-21 00:17:00,52.2,46.8,30.18,NNE,32,0.0,1.0,82,0.00,,,0.00,0.0,meteohub,2013-04-21 05:17:00,
2013-04-21 00:22:00,52.2,47.1,30.18,ENE,69,0.0,1.0,83,0.00,,,0.00,0.0,meteohub,2013-04-21 05:22:00,
2013-04-21 00:27:00,52.0,46.9,30.18,ENE,69,0.0,2.0,83,0.00,,,0.00,0.0,meteohub,2013-04-21 05:27:00,
2013-04-21 00:32:00,51.6,46.9,30.18,ENE,69,0.0,2.0,84,0.00,,,0.00,0.0,meteohub,2013-04-21 05:32:00,
2013-04-21 00:37:00,51.4,46.8,30.18,ENE,69,0.0,0.0,84,0.00,,,0.00,0.0,meteohub,2013-04-21 05:37:00,
2013-04-21 00:42:00,51.3,46.9,30.18,ENE,69,0.0,0.0,85,0.00,,,0.00,0.0,meteohub,2013-04-21 05:42:00,
2013-04-21 00:47:00,51.4,47.1,30.18,ENE,69,0.0,0.0,85,0.00,,,0.00,0.0,meteohub,2013-04-21 05:47:00,
2013-04-21 00:52:00,51.4,46.8,30.18,ENE,69,0.0,0.0,84,0.00,,,0.00,0.0,meteohub,2013-04-21 05:52:00,
2013-04-21 00:57:00,51.6,46.9,30.18,ENE,69,0.0,1.0,84,0.00,,,0.00,0.0,meteohub,2013-04-21 05:57:00,
2013-04-21 01:02:00,51.6,46.6,30.18,ENE,69,0.0,1.0,83,0.00,,,0.00,0.0,meteohub,2013-04-21 06:02:00,
2013-04-21 01:07:00,52.0,46.9,30.18,ENE,68,0.0,2.0,83,0.00,,,0.00,0.0,meteohub,2013-04-21 06:07:00,
2013-04-21 01:12:00,52.5,46.9,30.18,ENE,68,0.0,2.0,81,0.00,,,0.00,0.0,meteohub,2013-04-21 06:12:00,
2013-04-21 01:17:00,53.1,47.1,30.18,ENE,69,0.0,2.0,80,0.00,,,0.00,0.0,meteohub,2013-04-21 06:17:00,
2013-04-21 01:22:00,53.6,46.9,30.18,North,1,0.0,2.0,78,0.00,,,0.00,0.0,meteohub,2013-04-21 06:22:00,
2013-04-21 01:27:00,54.1,47.1,30.18,North,1,0.0,2.0,77,0.00,,,0.00,0.0,meteohub,2013-04-21 06:27:00,
2013-04-21 01:32:00,54.1,46.8,30.18,North,1,0.0,2.0,76,0.00,,,0.00,0.0,meteohub,2013-04-21 06:32:00,
2013-04-21 01:37:00,54.0,46.6,30.18,North,1,0.0,1.0,76,0.00,,,0.00,0.0,meteohub,2013-04-21 06:37:00,
2013-04-21 01:42:00,53.6,46.6,30.17,North,0,0.0,1.0,77,0.00,,,0.00,0.0,meteohub,2013-04-21 06:42:00,
2013-04-21 01:47:00,53.2,46.6,30.17,North,0,0.0,1.0,78,0.00,,,0.00,0.0,meteohub,2013-04-21 06:47:00,
2013-04-21 01:52:00,52.3,46.8,30.17,North,1,0.0,1.0,81,0.00,,,0.00,0.0,meteohub,2013-04-21 06:52:00,
2013-04-21 01:57:00,51.8,46.4,30.17,North,1,0.0,1.0,82,0.00,,,0.00,0.0,meteohub,2013-04-21 06:57:00,
2013-04-21 02:02:00,51.3,46.6,30.17,North,0,0.0,1.0,84,0.00,,,0.00,0.0,meteohub,2013-04-21 07:02:00,
2013-04-21 02:07:00,50.5,46.2,30.17,North,1,0.0,0.0,85,0.00,,,0.00,0.0,meteohub,2013-04-21 07:07:00,
2013-04-21 02:12:00,50.2,46.2,30.17,North,1,0.0,0.0,86,0.00,,,0.00,0.0,meteohub,2013-04-21 07:12:00,
2013-04-21 02:17:00,49.6,45.9,30.17,North,0,0.0,0.0,87,0.00,,,0.00,0.0,meteohub,2013-04-21 07:17:00,
2013-04-21 02:22:00,49.5,46.0,30.17,North,0,0.0,0.0,88,0.00,,,0.00,0.0,meteohub,2013-04-21 07:22:00,
2013-04-21 02:27:00,49.3,46.2,30.17,North,1,0.0,0.0,89,0.00,,,0.00,0.0,meteohub,2013-04-21 07:27:00,
2013-04-21 02:32:00,48.9,45.9,30.17,North,1,0.0,0.0,89,0.00,,,0.00,0.0,meteohub,2013-04-21 07:32:00,
2013-04-21 02:37:00,48.7,45.9,30.17,North,1,0.0,0.0,90,0.00,,,0.00,0.0,meteohub,2013-04-21 07:37:00,
2013-04-21 02:42:00,48.6,45.7,30.17,North,0,0.0,0.0,90,0.00,,,0.00,0.0,meteohub,2013-04-21 07:42:00,
2013-04-21 02:47:00,48.4,45.9,30.17,North,1,0.0,0.0,91,0.00,,,0.00,0.0,meteohub,2013-04-21 07:47:00,
2013-04-21 02:52:00,48.6,46.0,30.17,North,1,0.0,0.0,91,0.00,,,0.00,0.0,meteohub,2013-04-21 07:52:00,
2013-04-21 02:57:00,48.4,46.2,30.17,North,0,0.0,0.0,92,0.00,,,0.00,0.0,meteohub,2013-04-21 07:57:00,
2013-04-21 03:02:00,48.0,45.9,30.17,North,0,0.0,0.0,92,0.00,,,0.00,0.0,meteohub,2013-04-21 08:02:00,
2013-04-21 03:07:00,48.0,46.0,30.17,North,1,0.0,0.0,93,0.00,,,0.00,0.0,meteohub,2013-04-21 08:07:00,
2013-04-21 03:12:00,47.8,45.9,30.17,North,1,0.0,0.0,93,0.00,,,0.00,0.0,meteohub,2013-04-21 08:12:00,
2013-04-21 03:17:00,47.7,45.7,30.17,North,1,0.0,0.0,93,0.00,,,0.00,0.0,meteohub,2013-04-21 08:17:00,
2013-04-21 03:22:00,47.7,45.7,30.16,North,0,0.0,0.0,93,0.00,,,0.00,0.0,meteohub,2013-04-21 08:22:00,
2013-04-21 03:27:00,47.5,45.5,30.16,North,1,0.0,0.0,93,0.00,,,0.00,0.0,meteohub,2013-04-21 08:27:00,
2013-04-21 03:32:00,47.5,45.9,30.16,North,1,0.0,0.0,94,0.00,,,0.00,0.0,meteohub,2013-04-21 08:32:00,
2013-04-21 03:37:00,47.3,45.7,30.16,North,0,0.0,0.0,94,0.00,,,0.00,0.0,meteohub,2013-04-21 08:37:00,
2013-04-21 03:42:00,47.1,45.5,30.16,North,1,0.0,0.0,94,0.00,,,0.00,0.0,meteohub,2013-04-21 08:42:00,
2013-04-21 03:47:00,46.9,45.3,30.16,North,1,0.0,0.0,94,0.00,,,0.00,0.0,meteohub,2013-04-21 08:47:00,
2013-04-21 03:52:00,47.1,45.5,30.16,North,1,0.0,0.0,94,0.00,,,0.00,0.0,meteohub,2013-04-21 08:52:00,
2013-04-21 03:57:00,46.9,45.3,30.16,North,0,0.0,0.0,94,0.00,,,0.00,0.0,meteohub,2013-04-21 08:57:00,
2013-04-21 04:02:00,46.9,45.3,30.16,North,1,0.0,0.0,94,0.00,,,0.00,0.0,meteohub,2013-04-21 09:02:00,
2013-04-21 04:07:00,46.9,45.3,30.15,North,1,0.0,0.0,94,0.00,,,0.00,0.0,meteohub,2013-04-21 09:07:00,
2013-04-21 04:12:00,46.9,45.5,30.15,North,1,0.0,0.0,95,0.00,,,0.00,0.0,meteohub,2013-04-21 09:12:00,
2013-04-21 04:17:00,46.8,45.3,30.15,North,0,0.0,0.0,95,0.00,,,0.00,0.0,meteohub,2013-04-21 09:17:00,
2013-04-21 04:22:00,46.8,45.1,30.15,North,1,0.0,0.0,94,0.00,,,0.00,0.0,meteohub,2013-04-21 09:22:00,
2013-04-21 04:27:00,46.6,45.1,30.15,North,1,0.0,0.0,95,0.00,,,0.00,0.0,meteohub,2013-04-21 09:27:00,
2013-04-21 04:32:00,46.6,45.1,30.15,North,0,0.0,0.0,95,0.00,,,0.00,0.0,meteohub,2013-04-21 09:32:00,
2013-04-21 04:37:00,46.6,45.1,30.15,North,1,0.0,0.0,95,0.00,,,0.00,0.0,meteohub,2013-04-21 09:37:00,
2013-04-21 04:42:00,46.2,44.8,30.15,North,1,0.0,0.0,95,0.00,,,0.00,0.0,meteohub,2013-04-21 09:42:00,
2013-04-21 04:47:00,46.2,44.8,30.15,North,1,0.0,0.0,95,0.00,,,0.00,0.0,meteohub,2013-04-21 09:47:00,
2013-04-21 04:52:00,46.6,45.1,30.15,North,0,0.0,0.0,95,0.00,,,0.00,0.0,meteohub,2013-04-21 09:52:00,
2013-04-21 04:57:00,46.8,45.3,30.15,North,1,0.0,0.0,95,0.00,,,0.00,0.0,meteohub,2013-04-21 09:57:00,
2013-04-21 05:02:00,46.8,45.3,30.15,North,1,0.0,0.0,95,0.00,,,0.00,0.0,meteohub,2013-04-21 10:02:00,
2013-04-21 05:07:00,46.8,45.3,30.15,North,0,0.0,0.0,95,0.00,,,0.00,0.0,meteohub,2013-04-21 10:07:00,
2013-04-21 05:12:00,46.8,45.1,30.16,North,0,0.0,0.0,94,0.00,,,0.00,0.0,meteohub,2013-04-21 10:12:00,
2013-04-21 05:17:00,46.6,45.0,30.16,North,1,0.0,0.0,94,0.00,,,0.00,0.0,meteohub,2013-04-21 10:17:00,
2013-04-21 05:22:00,46.8,45.3,30.16,North,1,0.0,0.0,95,0.00,,,0.00,0.0,meteohub,2013-04-21 10:22:00,
2013-04-21 05:27:00,46.8,45.3,30.16,North,1,0.0,0.0,95,0.00,,,0.00,0.0,meteohub,2013-04-21 10:27:00,
2013-04-21 05:32:00,46.8,45.3,30.16,North,0,0.0,1.0,95,0.00,,,0.00,0.0,meteohub,2013-04-21 10:32:00,
2013-04-21 05:37:00,46.6,45.1,30.16,North,0,0.0,1.0,95,0.00,,,0.00,0.0,meteohub,2013-04-21 10:37:00,
2013-04-21 05:42:00,46.8,45.3,30.16,North,1,0.0,1.0,95,0.00,,,0.00,0.0,meteohub,2013-04-21 10:42:00,
2013-04-21 05:47:00,46.8,45.3,30.17,North,0,0.0,1.0,95,0.00,,,0.00,0.0,meteohub,2013-04-21 10:47:00,
2013-04-21 05:52:00,46.8,45.1,30.17,North,1,0.0,0.0,94,0.00,,,0.00,0.0,meteohub,2013-04-21 10:52:00,
2013-04-21 05:57:00,46.6,45.0,30.17,North,1,0.0,0.0,94,0.00,,,0.00,0.0,meteohub,2013-04-21 10:57:00,
2013-04-21 06:02:00,46.4,44.8,30.17,North,1,0.0,0.0,94,0.00,,,0.00,0.0,meteohub,2013-04-21 11:02:00,
2013-04-21 06:07:00,46.0,44.4,30.18,North,1,0.0,0.0,94,0.00,,,0.00,0.0,meteohub,2013-04-21 11:07:00,
2013-04-21 06:12:00,45.9,44.2,30.18,North,1,0.0,0.0,94,0.00,,,0.00,0.0,meteohub,2013-04-21 11:12:00,
2013-04-21 06:17:00,45.7,44.1,30.18,North,1,0.0,0.0,94,0.00,,,0.00,0.0,meteohub,2013-04-21 11:17:00,
2013-04-21 06:22:00,45.5,43.9,30.18,North,0,0.0,0.0,94,0.00,,,0.00,0.0,meteohub,2013-04-21 11:22:00,
2013-04-21 06:27:00,45.7,44.1,30.18,North,1,0.0,0.0,94,0.00,,,0.00,0.0,meteohub,2013-04-21 11:27:00,
2013-04-21 06:32:00,45.7,44.1,30.18,North,1,0.0,0.0,94,0.00,,,0.00,0.0,meteohub,2013-04-21 11:32:00,
2013-04-21 06:37:00,46.0,44.4,30.18,North,1,0.0,0.0,94,0.00,,,0.00,0.0,meteohub,2013-04-21 11:37:00,
2013-04-21 06:42:00,46.4,44.8,30.18,North,0,0.0,1.0,94,0.00,,,0.00,7.0,meteohub,2013-04-21 11:42:00,
2013-04-21 06:47:00,46.4,44.8,30.19,North,1,0.0,1.0,94,0.00,,,0.00,11.0,meteohub,2013-04-21 11:47:00,
2013-04-21 06:52:00,46.0,44.1,30.20,North,1,0.0,1.0,93,0.00,,,0.00,12.0,meteohub,2013-04-21 11:52:00,
2013-04-21 06:57:00,46.0,44.1,30.21,North,0,0.0,1.0,93,0.00,,,0.00,18.0,meteohub,2013-04-21 11:57:00,
2013-04-21 07:02:00,46.0,44.4,30.20,North,0,0.0,0.0,94,0.00,,,0.00,23.0,meteohub,2013-04-21 12:02:00,
2013-04-21 07:07:00,46.0,44.4,30.21,North,1,0.0,0.0,94,0.00,,,0.00,26.0,meteohub,2013-04-21 12:07:00,
2013-04-21 07:12:00,46.0,44.4,30.22,North,1,0.0,0.0,94,0.00,,,0.00,30.0,meteohub,2013-04-21 12:12:00,
2013-04-21 07:17:00,46.2,44.6,30.22,North,1,0.0,0.0,94,0.00,,,0.00,33.0,meteohub,2013-04-21 12:17:00,
2013-04-21 07:22:00,46.6,45.0,30.23,North,0,0.0,0.0,94,0.00,,,0.00,37.0,meteohub,2013-04-21 12:22:00,
2013-04-21 07:27:00,46.8,45.3,30.23,North,1,0.0,0.0,95,0.00,,,0.00,40.0,meteohub,2013-04-21 12:27:00,
2013-04-21 07:32:00,47.1,45.7,30.23,North,0,0.0,0.0,95,0.00,,,0.00,42.0,meteohub,2013-04-21 12:32:00,
2013-04-21 07:37:00,47.7,46.2,30.23,North,1,0.0,0.0,95,0.00,,,0.00,46.0,meteohub,2013-04-21 12:37:00,
2013-04-21 07:42:00,48.0,46.6,30.23,North,1,0.0,0.0,95,0.00,,,0.00,49.0,meteohub,2013-04-21 12:42:00,
2013-04-21 07:47:00,48.6,47.1,30.23,North,1,0.0,0.0,95,0.00,,,0.00,53.0,meteohub,2013-04-21 12:47:00,
2013-04-21 07:52:00,49.1,47.7,30.23,North,0,0.0,0.0,95,0.00,,,0.00,70.0,meteohub,2013-04-21 12:52:00,
2013-04-21 07:57:00,49.6,48.0,30.23,North,1,0.0,0.0,94,0.00,,,0.00,151.0,meteohub,2013-04-21 12:57:00,
2013-04-21 08:02:00,50.5,48.9,30.23,North,0,0.0,0.0,94,0.00,,,0.00,149.0,meteohub,2013-04-21 13:02:00,
2013-04-21 08:07:00,51.4,49.5,30.23,North,0,0.0,0.0,93,0.00,,,0.00,144.0,meteohub,2013-04-21 13:07:00,
2013-04-21 08:12:00,53.1,49.6,30.23,NNE,13,0.0,1.0,88,0.00,,,0.00,146.0,meteohub,2013-04-21 13:12:00,
2013-04-21 08:17:00,54.1,49.1,30.23,North,6,2.0,2.0,83,0.00,,,0.00,160.0,meteohub,2013-04-21 13:17:00,
2013-04-21 08:22:00,55.0,48.6,30.23,NNW,344,1.0,1.0,79,0.00,,,0.00,183.0,meteohub,2013-04-21 13:22:00,
2013-04-21 08:27:00,55.9,48.2,30.23,NNE,32,3.0,3.0,75,0.00,,,0.00,214.0,meteohub,2013-04-21 13:27:00,
2013-04-21 08:32:00,56.7,48.0,30.23,NE,46,0.0,3.0,73,0.00,,,0.00,243.0,meteohub,2013-04-21 13:32:00,
2013-04-21 08:37:00,57.4,47.7,30.23,NE,44,0.0,3.0,70,0.00,,,0.00,269.0,meteohub,2013-04-21 13:37:00,
2013-04-21 08:42:00,57.9,47.8,30.23,NE,49,3.0,3.0,69,0.00,,,0.00,287.0,meteohub,2013-04-21 13:42:00,
2013-04-21 08:47:00,58.5,47.1,30.22,North,11,2.0,3.0,66,0.00,,,0.00,304.0,meteohub,2013-04-21 13:47:00,
2013-04-21 08:52:00,59.0,47.3,30.23,NE,44,0.0,3.0,65,0.00,,,0.00,311.0,meteohub,2013-04-21 13:52:00,
2013-04-21 08:57:00,59.4,47.7,30.22,NE,38,1.0,4.0,65,0.00,,,0.00,309.0,meteohub,2013-04-21 13:57:00,
2013-04-21 09:02:00,60.3,48.4,30.22,NE,35,0.0,4.0,65,0.00,,,0.00,304.0,meteohub,2013-04-21 14:02:00,
2013-04-21 09:07:00,60.4,47.3,30.22,NNW,346,1.0,5.0,62,0.00,,,0.00,304.0,meteohub,2013-04-21 14:07:00,
2013-04-21 09:12:00,60.6,47.1,30.22,NNW,329,3.0,5.0,61,0.00,,,0.00,315.0,meteohub,2013-04-21 14:12:00,
2013-04-21 09:17:00,61.2,46.8,30.22,NE,46,2.0,5.0,59,0.00,,,0.00,338.0,meteohub,2013-04-21 14:17:00,
2013-04-21 09:22:00,61.5,46.6,30.23,NE,47,0.0,6.0,58,0.00,,,0.00,369.0,meteohub,2013-04-21 14:22:00,
2013-04-21 09:27:00,61.9,46.4,30.23,North,4,4.0,6.0,57,0.00,,,0.00,392.0,meteohub,2013-04-21 14:27:00,
2013-04-21 09:32:00,62.1,45.7,30.23,North,350,0.0,7.0,55,0.00,,,0.00,413.0,meteohub,2013-04-21 14:32:00,
2013-04-21 09:37:00,62.8,46.4,30.23,NNE,25,2.0,7.0,55,0.00,,,0.00,427.0,meteohub,2013-04-21 14:37:00,
2013-04-21 09:42:00,62.8,46.4,30.23,NNE,27,5.0,9.0,55,0.00,,,0.00,438.0,meteohub,2013-04-21 14:42:00,
2013-04-21 09:47:00,62.8,45.9,30.23,NNE,15,0.0,9.0,54,0.00,,,0.00,448.0,meteohub,2013-04-21 14:47:00,
2013-04-21 09:52:00,63.3,46.9,30.24,North,358,0.0,6.0,55,0.00,,,0.00,459.0,meteohub,2013-04-21 14:52:00,
2013-04-21 09:57:00,63.7,47.3,30.23,NNE,17,0.0,6.0,55,0.00,,,0.00,473.0,meteohub,2013-04-21 14:57:00,
2013-04-21 10:02:00,64.0,45.0,30.23,NNW,343,4.0,6.0,50,0.00,,,0.00,489.0,meteohub,2013-04-21 15:02:00,
2013-04-21 10:07:00,64.2,45.1,30.23,NNE,30,0.0,6.0,50,0.00,,,0.00,508.0,meteohub,2013-04-21 15:07:00,
2013-04-21 10:12:00,64.9,46.4,30.23,North,7,1.0,8.0,51,0.00,,,0.00,527.0,meteohub,2013-04-21 15:12:00,
2013-04-21 10:17:00,65.7,48.0,30.23,North,0,0.0,8.0,53,0.00,,,0.00,548.0,meteohub,2013-04-21 15:17:00,
2013-04-21 10:22:00,66.2,46.4,30.23,North,355,4.0,8.0,49,0.00,,,0.00,568.0,meteohub,2013-04-21 15:22:00,
2013-04-21 10:27:00,66.6,44.1,30.22,NE,35,0.0,8.0,44,0.00,,,0.00,592.0,meteohub,2013-04-21 15:27:00,
2013-04-21 10:32:00,66.4,45.0,30.22,North,0,3.0,11.0,46,0.00,,,0.00,613.0,meteohub,2013-04-21 15:32:00,
2013-04-21 10:38:00,66.9,45.0,30.23,North,358,1.0,11.0,45,0.00,,,0.00,638.0,meteohub,2013-04-21 15:38:00,
2013-04-21 10:43:00,67.5,44.2,30.23,NE,38,1.0,11.0,43,0.00,,,0.00,666.0,meteohub,2013-04-21 15:43:00,
2013-04-21 10:48:00,67.5,43.5,30.23,NNE,25,3.0,8.0,42,0.00,,,0.00,694.0,meteohub,2013-04-21 15:48:00,
2013-04-21 10:53:00,67.5,43.0,30.23,ESE,111,1.0,8.0,41,0.00,,,0.00,721.0,meteohub,2013-04-21 15:53:00,
2013-04-21 10:58:00,67.6,41.7,30.23,NE,56,0.0,8.0,39,0.00,,,0.00,751.0,meteohub,2013-04-21 15:58:00,
2013-04-21 11:03:00,68.0,43.3,30.22,NE,35,1.0,10.0,41,0.00,,,0.00,786.0,meteohub,2013-04-21 16:03:00,
2013-04-21 11:08:00,68.4,42.4,30.22,NNE,19,0.0,10.0,39,0.00,,,0.00,819.0,meteohub,2013-04-21 16:08:00,
2013-04-21 11:13:00,67.8,43.9,30.22,North,2,0.0,9.0,42,0.00,,,0.00,851.0,meteohub,2013-04-21 16:13:00,
2013-04-21 11:18:00,68.4,41.7,30.22,NW,318,4.0,9.0,38,0.00,,,0.00,867.0,meteohub,2013-04-21 16:18:00,
2013-04-21 11:23:00,68.5,43.3,30.22,NNE,30,1.0,9.0,40,0.00,,,0.00,875.0,meteohub,2013-04-21 16:23:00,
2013-04-21 11:28:00,67.8,41.9,30.22,NNE,13,2.0,9.0,39,0.00,,,0.00,891.0,meteohub,2013-04-21 16:28:00,
2013-04-21 11:33:00,68.4,43.2,30.22,ENE,72,2.0,10.0,40,0.00,,,0.00,902.0,meteohub,2013-04-21 16:33:00,
2013-04-21 11:38:00,68.7,44.8,30.22,NNE,12,4.0,10.0,42,0.00,,,0.00,914.0,meteohub,2013-04-21 16:38:00,
2013-04-21 11:43:00,69.3,45.9,30.22,ENE,78,2.0,10.0,43,0.00,,,0.00,956.0,meteohub,2013-04-21 16:43:00,
2013-04-21 11:48:00,69.1,43.7,30.22,NE,44,4.0,10.0,40,0.00,,,0.00,990.0,meteohub,2013-04-21 16:48:00,
2013-04-21 11:53:00,68.5,42.6,30.22,NE,56,2.0,7.0,39,0.00,,,0.00,1002.0,meteohub,2013-04-21 16:53:00,
2013-04-21 11:58:00,68.7,42.8,30.21,North,0,5.0,7.0,39,0.00,,,0.00,1013.0,meteohub,2013-04-21 16:58:00,
2013-04-21 12:03:00,68.4,41.7,30.21,NE,48,0.0,9.0,38,0.00,,,0.00,1014.0,meteohub,2013-04-21 17:03:00,
2013-04-21 12:08:00,68.7,42.8,30.21,NE,38,0.0,9.0,39,0.00,,,0.00,1013.0,meteohub,2013-04-21 17:08:00,
2013-04-21 12:13:00,69.4,43.3,30.21,ENE,68,1.0,9.0,39,0.00,,,0.00,1014.0,meteohub,2013-04-21 17:13:00,
2013-04-21 12:18:00,69.4,42.1,30.21,NNE,30,2.0,7.0,37,0.00,,,0.00,1011.0,meteohub,2013-04-21 17:18:00,
2013-04-21 12:23:00,69.4,43.3,30.21,North,349,0.0,7.0,39,0.00,,,0.00,1007.0,meteohub,2013-04-21 17:23:00,
2013-04-21 12:28:00,69.4,44.1,30.20,NE,42,0.0,7.0,40,0.00,,,0.00,1005.0,meteohub,2013-04-21 17:28:00,
2013-04-21 12:33:00,69.8,44.4,30.19,NNE,23,0.0,8.0,40,0.00,,,0.00,1004.0,meteohub,2013-04-21 17:33:00,
2013-04-21 12:38:00,69.4,44.1,30.19,NNW,343,6.0,8.0,40,0.00,,,0.00,1004.0,meteohub,2013-04-21 17:38:00,
2013-04-21 12:43:00,70.5,44.4,30.19,ENE,59,2.0,5.0,39,0.00,,,0.00,1002.0,meteohub,2013-04-21 17:43:00,
2013-04-21 12:48:00,70.2,44.1,30.19,NNW,335,1.0,5.0,39,0.00,,,0.00,1004.0,meteohub,2013-04-21 17:48:00,
2013-04-21 12:53:00,69.6,42.8,30.19,ENE,77,0.0,5.0,38,0.00,,,0.00,1002.0,meteohub,2013-04-21 17:53:00,
2013-04-21 12:58:00,70.2,44.1,30.19,WNW,298,0.0,9.0,39,0.00,,,0.00,998.0,meteohub,2013-04-21 17:58:00,
2013-04-21 13:03:00,70.3,45.5,30.19,North,3,0.0,9.0,41,0.00,,,0.00,1000.0,meteohub,2013-04-21 18:03:00,
2013-04-21 13:08:00,70.9,44.1,30.19,North,352,3.0,9.0,38,0.00,,,0.00,997.0,meteohub,2013-04-21 18:08:00,
2013-04-21 13:13:00,71.2,44.2,30.18,NE,38,3.0,7.0,38,0.00,,,0.00,998.0,meteohub,2013-04-21 18:13:00,
2013-04-21 13:18:00,70.5,43.0,30.18,North,351,0.0,7.0,37,0.00,,,0.00,1000.0,meteohub,2013-04-21 18:18:00,
2013-04-21 13:23:00,70.9,44.1,30.18,North,9,0.0,9.0,38,0.00,,,0.00,991.0,meteohub,2013-04-21 18:23:00,
2013-04-21 13:28:00,70.7,44.6,30.18,NNW,341,0.0,9.0,39,0.00,,,0.00,991.0,meteohub,2013-04-21 18:28:00,
2013-04-21 13:33:00,70.9,44.8,30.18,NNE,28,2.0,6.0,39,0.00,,,0.00,986.0,meteohub,2013-04-21 18:33:00,
2013-04-21 13:38:00,71.2,43.7,30.18,NNW,329,0.0,6.0,37,0.00,,,0.00,986.0,meteohub,2013-04-21 18:38:00,
2013-04-21 13:43:00,71.4,43.2,30.18,NE,41,1.0,7.0,36,0.00,,,0.00,983.0,meteohub,2013-04-21 18:43:00,
2013-04-21 13:48:00,71.2,43.7,30.18,WNW,283,2.0,7.0,37,0.00,,,0.00,976.0,meteohub,2013-04-21 18:48:00,
2013-04-21 13:53:00,70.3,45.0,30.17,WNW,283,0.0,5.0,40,0.00,,,0.00,974.0,meteohub,2013-04-21 18:53:00,
2013-04-21 13:58:00,70.5,45.0,30.17,East,98,0.0,5.0,40,0.00,,,0.00,969.0,meteohub,2013-04-21 18:58:00,
2013-04-21 14:04:00,71.8,46.2,30.17,East,97,0.0,4.0,40,0.00,,,0.00,958.0,meteohub,2013-04-21 19:04:00,
2013-04-21 14:09:00,71.4,43.7,30.17,North,350,5.0,5.0,37,0.00,,,0.00,954.0,meteohub,2013-04-21 19:09:00,
2013-04-21 14:14:00,71.4,42.3,30.17,North,8,0.0,5.0,35,0.00,,,0.00,946.0,meteohub,2013-04-21 19:14:00,
2013-04-21 14:19:00,71.2,46.4,30.17,North,9,0.0,5.0,41,0.00,,,0.00,935.0,meteohub,2013-04-21 19:19:00,
2013-04-21 14:24:00,72.1,45.9,30.16,North,10,7.0,7.0,39,0.00,,,0.00,926.0,meteohub,2013-04-21 19:24:00,
2013-04-21 14:29:00,72.0,45.0,30.16,ENE,71,0.0,7.0,38,0.00,,,0.00,916.0,meteohub,2013-04-21 19:29:00,
2013-04-21 14:34:00,72.3,44.6,30.15,East,94,0.0,9.0,37,0.00,,,0.00,914.0,meteohub,2013-04-21 19:34:00,
2013-04-21 14:39:00,72.1,45.9,30.15,NNE,31,3.0,9.0,39,0.00,,,0.00,905.0,meteohub,2013-04-21 19:39:00,
2013-04-21 14:44:00,72.5,45.5,30.15,NNE,29,4.0,6.0,38,0.00,,,0.00,896.0,meteohub,2013-04-21 19:44:00,
2013-04-21 14:49:00,72.7,45.7,30.15,North,355,3.0,6.0,38,0.00,,,0.00,886.0,meteohub,2013-04-21 19:49:00,
2013-04-21 14:54:00,72.7,45.7,30.15,East,86,2.0,9.0,38,0.00,,,0.00,874.0,meteohub,2013-04-21 19:54:00,
2013-04-21 14:59:00,72.0,45.7,30.14,NNW,345,0.0,9.0,39,0.00,,,0.00,865.0,meteohub,2013-04-21 19:59:00,
2013-04-21 15:04:00,71.8,44.8,30.14,NNW,344,0.0,5.0,38,0.00,,,0.00,847.0,meteohub,2013-04-21 20:04:00,
2013-04-21 15:09:00,71.8,45.5,30.14,North,1,2.0,5.0,39,0.00,,,0.00,838.0,meteohub,2013-04-21 20:09:00,
2013-04-21 15:14:00,72.9,45.7,30.14,NNE,23,0.0,4.0,38,0.00,,,0.00,830.0,meteohub,2013-04-21 20:14:00,
2013-04-21 15:19:00,72.7,45.0,30.14,NNW,338,0.0,4.0,37,0.00,,,0.00,591.0,meteohub,2013-04-21 20:19:00,
2013-04-21 15:24:00,72.5,42.6,30.14,North,350,0.0,9.0,34,0.00,,,0.00,802.0,meteohub,2013-04-21 20:24:00,
2013-04-21 15:29:00,72.1,44.4,30.13,North,5,3.0,9.0,37,0.00,,,0.00,436.0,meteohub,2013-04-21 20:29:00,
2013-04-21 15:34:00,72.3,46.0,30.13,NNE,31,1.0,6.0,39,0.00,,,0.00,536.0,meteohub,2013-04-21 20:34:00,
2013-04-21 15:39:00,72.7,44.2,30.13,NNE,24,2.0,6.0,36,0.00,,,0.00,387.0,meteohub,2013-04-21 20:39:00,
2013-04-21 15:44:00,72.7,45.7,30.13,NE,38,2.0,5.0,38,0.00,,,0.00,461.0,meteohub,2013-04-21 20:44:00,
2013-04-21 15:49:00,72.7,45.0,30.12,NNE,25,2.0,5.0,37,0.00,,,0.00,369.0,meteohub,2013-04-21 20:49:00,
2013-04-21 15:54:00,72.7,42.6,30.12,North,5,0.0,9.0,34,0.00,,,0.00,573.0,meteohub,2013-04-21 20:54:00,
2013-04-21 15:59:00,72.3,44.6,30.12,ENE,59,0.0,9.0,37,0.00,,,0.00,424.0,meteohub,2013-04-21 20:59:00,
2013-04-21 16:05:00,72.1,44.4,30.12,NNE,27,1.0,6.0,37,0.00,,,0.00,355.0,meteohub,2013-04-21 21:05:00,
2013-04-21 16:10:00,72.7,42.6,30.12,NNW,340,0.0,6.0,34,0.00,,,0.00,178.0,meteohub,2013-04-21 21:10:00,
2013-04-21 16:15:00,72.5,42.6,30.12,NNE,24,3.0,10.0,34,0.00,,,0.00,104.0,meteohub,2013-04-21 21:15:00,
2013-04-21 16:20:00,72.5,44.8,30.12,NE,34,2.0,10.0,37,0.00,,,0.00,155.0,meteohub,2013-04-21 21:20:00,
2013-04-21 16:25:00,72.7,42.6,30.12,NNE,15,2.0,6.0,34,0.00,,,0.00,148.0,meteohub,2013-04-21 21:25:00,
2013-04-21 16:30:00,72.9,43.5,30.12,NNE,22,0.0,6.0,35,0.00,,,0.00,461.0,meteohub,2013-04-21 21:30:00,
2013-04-21 16:35:00,72.7,42.6,30.11,NNE,28,0.0,10.0,34,0.00,,,0.00,288.0,meteohub,2013-04-21 21:35:00,
2013-04-21 16:40:00,72.1,42.3,30.11,NE,42,0.0,10.0,34,0.00,,,0.00,206.0,meteohub,2013-04-21 21:40:00,
2013-04-21 16:45:00,72.7,42.6,30.11,NE,34,4.0,10.0,34,0.00,,,0.00,98.0,meteohub,2013-04-21 21:45:00,
2013-04-21 16:50:00,72.3,43.2,30.11,NNE,26,1.0,10.0,35,0.00,,,0.00,72.0,meteohub,2013-04-21 21:50:00,
2013-04-21 16:55:00,72.1,43.0,30.11,North,3,1.0,10.0,35,0.00,,,0.00,211.0,meteohub,2013-04-21 21:55:00,
2013-04-21 17:00:00,71.8,44.1,30.10,North,5,0.0,10.0,37,0.00,,,0.00,376.0,meteohub,2013-04-21 22:00:00,
2013-04-21 17:05:00,72.1,43.7,30.10,NNE,19,0.0,5.0,36,0.00,,,0.00,253.0,meteohub,2013-04-21 22:05:00,
2013-04-21 17:10:00,72.1,43.7,30.10,NNE,15,7.0,7.0,36,0.00,,,0.00,76.0,meteohub,2013-04-21 22:10:00,
2013-04-21 17:15:00,72.1,43.0,30.10,NNE,14,3.0,10.0,35,0.00,,,0.00,163.0,meteohub,2013-04-21 22:15:00,
2013-04-21 17:20:00,72.1,43.7,30.10,NNE,27,5.0,10.0,36,0.00,,,0.00,118.0,meteohub,2013-04-21 22:20:00,
2013-04-21 17:25:00,72.1,43.7,30.10,ENE,66,0.0,10.0,36,0.00,,,0.00,362.0,meteohub,2013-04-21 22:25:00,
2013-04-21 17:30:00,72.0,43.5,30.10,NNW,347,1.0,10.0,36,0.00,,,0.00,241.0,meteohub,2013-04-21 22:30:00,
2013-04-21 17:35:00,72.0,42.8,30.10,ENE,67,2.0,6.0,35,0.00,,,0.00,302.0,meteohub,2013-04-21 22:35:00,
2013-04-21 17:40:00,72.1,43.7,30.10,NE,38,1.0,6.0,36,0.00,,,0.00,265.0,meteohub,2013-04-21 22:40:00,
2013-04-21 17:45:00,72.1,44.4,30.10,NNW,339,1.0,6.0,37,0.00,,,0.00,272.0,meteohub,2013-04-21 22:45:00,
2013-04-21 17:50:00,72.1,44.4,30.11,North,10,1.0,6.0,37,0.00,,,0.00,211.0,meteohub,2013-04-21 22:50:00,
2013-04-21 17:55:00,72.0,45.0,30.11,NNE,27,0.0,6.0,38,0.00,,,0.00,237.0,meteohub,2013-04-21 22:55:00,
2013-04-21 18:00:00,72.0,45.0,30.11,NNW,335,3.0,6.0,38,0.00,,,0.00,225.0,meteohub,2013-04-21 23:00:00,
2013-04-21 18:05:00,71.8,44.1,30.11,North,2,0.0,9.0,37,0.00,,,0.00,174.0,meteohub,2013-04-21 23:05:00,
2013-04-21 18:10:00,71.4,43.7,30.10,NNW,340,0.0,9.0,37,0.00,,,0.00,207.0,meteohub,2013-04-21 23:10:00,
2013-04-21 18:15:00,71.1,44.8,30.10,North,9,3.0,9.0,39,0.00,,,0.00,199.0,meteohub,2013-04-21 23:15:00,
2013-04-21 18:21:00,71.2,44.2,30.10,NNE,24,1.0,9.0,38,0.00,,,0.00,200.0,meteohub,2013-04-21 23:21:00,
2013-04-21 18:26:00,71.1,43.5,30.10,NNE,17,2.0,5.0,37,0.00,,,0.00,181.0,meteohub,2013-04-21 23:26:00,
2013-04-21 18:31:00,71.1,44.2,30.10,NW,313,1.0,5.0,38,0.00,,,0.00,160.0,meteohub,2013-04-21 23:31:00,
2013-04-21 18:36:00,70.3,43.5,30.10,NNW,339,0.0,5.0,38,0.00,,,0.00,142.0,meteohub,2013-04-21 23:36:00,
2013-04-21 18:41:00,70.2,44.1,30.10,North,359,0.0,6.0,39,0.00,,,0.00,121.0,meteohub,2013-04-21 23:41:00,
2013-04-21 18:46:00,69.6,44.2,30.10,North,359,2.0,6.0,40,0.00,,,0.00,76.0,meteohub,2013-04-21 23:46:00,
2013-04-21 18:51:00,69.4,44.1,30.10,NW,318,1.0,6.0,40,0.00,,,0.00,35.0,meteohub,2013-04-21 23:51:00,
2013-04-21 18:56:00,69.3,43.2,30.10,North,350,0.0,6.0,39,0.00,,,0.00,32.0,meteohub,2013-04-21 23:56:00,
2013-04-21 19:01:00,69.1,43.7,30.10,North,358,2.0,6.0,40,0.00,,,0.00,28.0,meteohub,2013-04-22 00:01:00,
2013-04-21 19:06:00,68.7,44.1,30.10,North,350,1.0,5.0,41,0.00,,,0.00,25.0,meteohub,2013-04-22 00:06:00,
2013-04-21 19:11:00,68.5,43.9,30.10,NNW,335,0.0,5.0,41,0.00,,,0.00,23.0,meteohub,2013-04-22 00:11:00,
2013-04-21 19:16:00,68.4,43.2,30.10,NW,318,0.0,5.0,40,0.00,,,0.00,19.0,meteohub,2013-04-22 00:16:00,
2013-04-21 19:21:00,68.2,43.5,30.10,NNW,345,0.0,5.0,41,0.00,,,0.00,16.0,meteohub,2013-04-22 00:21:00,
2013-04-21 19:26:00,67.8,43.9,30.11,NW,313,0.0,3.0,42,0.00,,,0.00,12.0,meteohub,2013-04-22 00:26:00,
2013-04-21 19:31:00,67.6,43.7,30.11,NW,313,0.0,3.0,42,0.00,,,0.00,9.0,meteohub,2013-04-22 00:31:00,
2013-04-21 19:36:00,67.3,44.1,30.11,NW,313,0.0,3.0,43,0.00,,,0.00,7.0,meteohub,2013-04-22 00:36:00,
2013-04-21 19:41:00,66.9,43.7,30.11,NW,313,0.0,3.0,43,0.00,,,0.00,0.0,meteohub,2013-04-22 00:41:00,
2013-04-21 19:46:00,66.0,44.6,30.11,NW,313,0.0,3.0,46,0.00,,,0.00,0.0,meteohub,2013-04-22 00:46:00,
2013-04-21 19:51:00,64.8,45.1,30.11,NW,313,0.0,3.0,49,0.00,,,0.00,0.0,meteohub,2013-04-22 00:51:00,
2013-04-21 19:56:00,63.7,44.2,30.11,NW,313,0.0,2.0,49,0.00,,,0.00,0.0,meteohub,2013-04-22 00:56:00,
2013-04-21 20:01:00,63.0,44.6,30.11,NW,313,0.0,2.0,51,0.00,,,0.00,0.0,meteohub,2013-04-22 01:01:00,
2013-04-21 20:06:00,62.2,45.0,30.11,NW,313,0.0,0.0,53,0.00,,,0.00,0.0,meteohub,2013-04-22 01:06:00,
2013-04-21 20:11:00,61.9,44.6,30.12,NW,313,0.0,0.0,53,0.00,,,0.00,0.0,meteohub,2013-04-22 01:11:00,
2013-04-21 20:16:00,61.5,45.1,30.12,NW,313,0.0,0.0,55,0.00,,,0.00,0.0,meteohub,2013-04-22 01:16:00,
2013-04-21 20:21:00,61.0,47.5,30.12,NW,313,0.0,0.0,61,0.00,,,0.00,0.0,meteohub,2013-04-22 01:21:00,
2013-04-21 20:26:00,60.4,49.1,30.12,NW,313,0.0,0.0,66,0.00,,,0.00,0.0,meteohub,2013-04-22 01:26:00,
2013-04-21 20:31:00,59.9,49.3,30.12,NW,313,0.0,0.0,68,0.00,,,0.00,0.0,meteohub,2013-04-22 01:31:00,
2013-04-21 20:36:00,59.4,48.7,30.12,NW,313,0.0,0.0,68,0.00,,,0.00,0.0,meteohub,2013-04-22 01:36:00,
2013-04-21 20:41:00,59.0,48.4,30.12,NW,313,0.0,0.0,68,0.00,,,0.00,0.0,meteohub,2013-04-22 01:41:00,
2013-04-21 20:46:00,59.0,48.4,30.12,NW,313,0.0,0.0,68,0.00,,,0.00,0.0,meteohub,2013-04-22 01:46:00,
2013-04-21 20:51:00,58.6,47.3,30.12,NW,313,0.0,0.0,66,0.00,,,0.00,0.0,meteohub,2013-04-22 01:51:00,
2013-04-21 20:56:00,58.3,46.9,30.12,NW,313,0.0,0.0,66,0.00,,,0.00,0.0,meteohub,2013-04-22 01:56:00,
2013-04-21 21:01:00,58.1,48.0,30.12,NW,313,0.0,0.0,69,0.00,,,0.00,0.0,meteohub,2013-04-22 02:01:00,
2013-04-21 21:06:00,57.7,47.3,30.13,NW,313,0.0,0.0,68,0.00,,,0.00,0.0,meteohub,2013-04-22 02:06:00,
2013-04-21 21:11:00,57.6,47.5,30.13,NW,313,0.0,0.0,69,0.00,,,0.00,0.0,meteohub,2013-04-22 02:11:00,
2013-04-21 21:16:00,57.4,48.4,30.13,NW,313,0.0,0.0,72,0.00,,,0.00,0.0,meteohub,2013-04-22 02:16:00,
2013-04-21 21:21:00,57.0,48.7,30.13,NW,313,0.0,0.0,74,0.00,,,0.00,0.0,meteohub,2013-04-22 02:21:00,
2013-04-21 21:26:00,56.7,48.0,30.13,NW,313,0.0,0.0,73,0.00,,,0.00,0.0,meteohub,2013-04-22 02:26:00,
2013-04-21 21:31:00,56.5,48.0,30.13,NW,313,0.0,0.0,73,0.00,,,0.00,0.0,meteohub,2013-04-22 02:31:00,
2013-04-21 21:36:00,56.5,48.0,30.13,NW,313,0.0,0.0,73,0.00,,,0.00,0.0,meteohub,2013-04-22 02:36:00,
2013-04-21 21:41:00,56.5,47.5,30.13,NW,313,0.0,0.0,72,0.00,,,0.00,0.0,meteohub,2013-04-22 02:41:00,
2013-04-21 21:46:00,56.5,48.0,30.13,NW,313,0.0,0.0,73,0.00,,,0.00,0.0,meteohub,2013-04-22 02:46:00,
2013-04-21 21:51:00,56.1,47.7,30.13,NW,313,0.0,0.0,73,0.00,,,0.00,0.0,meteohub,2013-04-22 02:51:00,
2013-04-21 21:56:00,55.9,47.8,30.13,NW,313,0.0,0.0,74,0.00,,,0.00,0.0,meteohub,2013-04-22 02:56:00,
2013-04-21 22:01:00,55.8,47.7,30.13,NW,313,0.0,0.0,74,0.00,,,0.00,0.0,meteohub,2013-04-22 03:01:00,
2013-04-21 22:06:00,55.6,47.8,30.13,NW,313,0.0,0.0,75,0.00,,,0.00,0.0,meteohub,2013-04-22 03:06:00,
2013-04-21 22:11:00,55.6,47.8,30.13,NW,313,0.0,0.0,75,0.00,,,0.00,0.0,meteohub,2013-04-22 03:11:00,
2013-04-21 22:16:00,55.4,48.0,30.13,NW,313,0.0,0.0,76,0.00,,,0.00,0.0,meteohub,2013-04-22 03:16:00,
2013-04-21 22:21:00,55.4,48.0,30.13,NW,313,0.0,0.0,76,0.00,,,0.00,0.0,meteohub,2013-04-22 03:21:00,
2013-04-21 22:26:00,55.2,47.8,30.13,NW,313,0.0,0.0,76,0.00,,,0.00,0.0,meteohub,2013-04-22 03:26:00,
2013-04-21 22:32:00,55.0,48.0,30.13,NW,313,0.0,0.0,77,0.00,,,0.00,0.0,meteohub,2013-04-22 03:32:00,
2013-04-21 22:37:00,54.9,47.8,30.13,NW,313,0.0,0.0,77,0.00,,,0.00,0.0,meteohub,2013-04-22 03:37:00,
2013-04-21 22:42:00,54.9,48.7,30.13,NW,313,0.0,0.0,80,0.00,,,0.00,0.0,meteohub,2013-04-22 03:42:00,
2013-04-21 22:47:00,54.7,48.9,30.14,NW,313,0.0,0.0,81,0.00,,,0.00,0.0,meteohub,2013-04-22 03:47:00,
2013-04-21 22:52:00,54.5,49.8,30.13,NW,313,0.0,0.0,84,0.00,,,0.00,0.0,meteohub,2013-04-22 03:52:00,
2013-04-21 22:57:00,54.3,49.8,30.14,NW,313,0.0,0.0,85,0.00,,,0.00,0.0,meteohub,2013-04-22 03:57:00,
2013-04-21 23:01:00,54.1,50.0,30.13,NW,313,0.0,0.0,86,0.00,,,0.00,0.0,meteohub,2013-04-22 04:01:00,
2013-04-21 23:02:00,54.1,50.0,30.13,NW,313,0.0,0.0,86,0.00,,,0.00,0.0,meteohub,2013-04-22 04:02:00,
2013-04-21 23:07:00,53.8,49.6,30.14,NW,313,0.0,0.0,86,0.00,,,0.00,0.0,meteohub,2013-04-22 04:07:00,
2013-04-21 23:12:00,53.4,49.3,30.14,NW,313,0.0,0.0,86,0.00,,,0.00,0.0,meteohub,2013-04-22 04:12:00,
2013-04-21 23:17:00,53.2,49.5,30.13,NW,313,0.0,0.0,87,0.00,,,0.00,0.0,meteohub,2013-04-22 04:17:00,
2013-04-21 23:22:00,53.1,49.6,30.14,NW,313,0.0,0.0,88,0.00,,,0.00,0.0,meteohub,2013-04-22 04:22:00,
2013-04-21 23:27:00,52.9,49.5,30.13,NW,313,0.0,0.0,88,0.00,,,0.00,0.0,meteohub,2013-04-22 04:27:00,
2013-04-21 23:32:00,52.5,49.1,30.13,NW,313,0.0,0.0,88,0.00,,,0.00,0.0,meteohub,2013-04-22 04:32:00,
2013-04-21 23:37:00,52.3,49.3,30.14,NW,313,0.0,0.0,89,0.00,,,0.00,0.0,meteohub,2013-04-22 04:37:00,
2013-04-21 23:42:00,52.3,49.3,30.14,NW,313,0.0,0.0,89,0.00,,,0.00,0.0,meteohub,2013-04-22 04:42:00,
2013-04-21 23:47:00,52.2,49.1,30.14,NW,313,0.0,0.0,89,0.00,,,0.00,0.0,meteohub,2013-04-22 04:47:00,
2013-04-21 23:52:00,52.2,49.3,30.14,NW,313,0.0,0.0,90,0.00,,,0.00,0.0,meteohub,2013-04-22 04:52:00,
2013-04-21 23:57:00,52.0,49.5,30.14,NW,313,0.0,0.0,91,0.00,,,0.00,0.0,meteohub,2013-04-22 04:57:00,